Time;durP1;ratioP1;P1;durP2;ratioP2;P2;SDS_P1;SDS_P2;PMS_P1;PMS_P2;Temp;Humidity;BMP_temperature;BMP_pressure;BME280_temperature;BME280_humidity;BME280_pressure;Samples;Min_cycle;Max_cycle;Signal;HPM_P1;HPM_P2
2022/03/17 00:01:32;;;;;;;63.73;38.37;;;;;;;5.59;nan;-23972.75;4987474;28;20180;-73
2022/03/17 00:03:58;;;;;;;72.13;40.23;;;;;;;5.43;nan;-23968.34;4986745;28;20673;-74
2022/03/17 00:06:23;;;;;;;67.90;39.60;;;;;;;5.52;nan;-23970.91;4986396;28;20200;-74
2022/03/17 00:08:49;;;;;;;68.03;39.43;;;;;;;5.71;nan;-23976.31;4986103;28;20194;-74
2022/03/17 00:11:14;;;;;;;67.00;39.13;;;;;;;5.14;nan;-23960.09;4984002;28;20196;-73
2022/03/17 00:13:41;;;;;;;64.63;39.30;;;;;;;5.44;nan;-23968.50;4986042;28;20193;-73
2022/03/17 00:16:09;;;;;;;64.67;39.80;;;;;;;5.83;nan;-23979.59;4985541;28;20192;-71
2022/03/17 00:18:35;;;;;;;66.27;39.53;;;;;;;5.24;nan;-23963.09;4982296;28;20189;-73
2022/03/17 00:21:00;;;;;;;63.53;39.80;;;;;;;5.69;nan;-23975.75;4983678;28;20219;-73
2022/03/17 00:23:26;;;;;;;66.50;38.93;;;;;;;5.26;nan;-23963.66;4984963;28;20703;-73
2022/03/17 00:25:52;;;;;;;70.30;40.40;;;;;;;5.34;nan;-23965.78;4983999;28;20181;-74
2022/03/17 00:28:17;;;;;;;70.03;40.73;;;;;;;5.47;nan;-23969.50;4985115;28;20187;-74
2022/03/17 00:30:43;;;;;;;68.87;40.00;;;;;;;5.77;nan;-23977.88;4987584;28;20229;-73
2022/03/17 00:33:08;;;;;;;66.40;39.27;;;;;;;5.73;nan;-23976.75;4989764;28;20181;-73
2022/03/17 00:35:38;;;;;;;68.67;39.93;;;;;;;5.50;nan;-23970.22;4988320;28;20546;-73
2022/03/17 00:38:07;;;;;;;61.93;39.17;;;;;;;5.35;nan;-23966.09;4987300;28;20192;-73
2022/03/17 00:40:35;;;;;;;67.60;39.97;;;;;;;5.17;nan;-23961.09;4987500;28;20184;-73
2022/03/17 00:43:01;;;;;;;61.37;37.60;;;;;;;5.57;nan;-23972.19;4986276;28;20735;-73
2022/03/17 00:45:26;;;;;;;67.90;37.30;;;;;;;5.18;nan;-23961.38;4985959;28;20191;-74
2022/03/17 00:47:52;;;;;;;61.77;36.83;;;;;;;5.00;nan;-23956.13;4985073;28;20185;-73
2022/03/17 00:50:17;;;;;;;65.23;35.77;;;;;;;5.27;nan;-23963.94;4979696;28;20196;-74
2022/03/17 00:52:43;;;;;;;60.07;36.17;;;;;;;5.32;nan;-23965.38;4984305;28;20671;-73
2022/03/17 00:55:08;;;;;;;60.67;34.57;;;;;;;5.18;nan;-23961.25;4982727;28;20185;-73
2022/03/17 00:57:36;;;;;;;56.43;34.90;;;;;;;5.24;nan;-23963.09;4983737;28;20207;-74
2022/03/17 01:00:05;;;;;;;53.17;33.27;;;;;;;5.16;nan;-23960.81;4986349;28;20339;-73
2022/03/17 01:02:30;;;;;;;52.33;32.40;;;;;;;4.86;nan;-23952.44;4984879;28;20177;-74
2022/03/17 01:04:56;;;;;;;51.83;30.83;;;;;;;4.94;nan;-23954.56;4985354;28;20187;-74
2022/03/17 01:07:21;;;;;;;44.23;28.87;;;;;;;4.86;nan;-23952.28;4980956;28;20609;-74
2022/03/17 01:09:47;;;;;;;44.83;28.07;;;;;;;5.33;nan;-23965.66;4982163;28;20196;-73
2022/03/17 01:12:13;;;;;;;48.23;30.27;;;;;;;4.98;nan;-23955.69;4983732;28;20177;-74
2022/03/17 01:14:38;;;;;;;49.97;29.90;;;;;;;5.14;nan;-23960.09;4985616;28;20203;-73
2022/03/17 01:17:04;;;;;;;49.83;30.53;;;;;;;5.19;nan;-23961.66;4985297;28;20192;-74
2022/03/17 01:19:29;;;;;;;48.87;30.30;;;;;;;5.41;nan;-23967.78;4985565;28;20180;-74
2022/03/17 01:21:55;;;;;;;46.53;28.80;;;;;;;5.24;nan;-23963.09;4982935;28;20675;-72
2022/03/17 01:24:20;;;;;;;45.73;28.57;;;;;;;5.28;nan;-23964.22;4984689;28;20200;-73
2022/03/17 01:26:46;;;;;;;47.80;29.90;;;;;;;5.24;nan;-23963.09;4984615;28;20547;-73
2022/03/17 01:29:13;;;;;;;49.30;29.43;;;;;;;5.24;nan;-23963.09;4982017;28;20195;-73
2022/03/17 01:31:39;;;;;;;51.67;31.27;;;;;;;5.29;nan;-23964.38;4988180;28;20180;-73
2022/03/17 01:34:04;;;;;;;52.33;29.53;;;;;;;5.02;nan;-23956.69;4984900;28;20188;-73
2022/03/17 01:36:30;;;;;;;53.60;31.23;;;;;;;4.83;nan;-23951.44;4982270;28;20219;-72
2022/03/17 01:38:56;;;;;;;53.60;31.80;;;;;;;5.36;nan;-23966.38;4980745;28;20185;-73
2022/03/17 01:41:22;;;;;;;51.13;32.87;;;;;;;4.95;nan;-23954.84;4983554;28;20203;-72
2022/03/17 01:43:48;;;;;;;53.37;32.20;;;;;;;5.27;nan;-23963.81;4975857;28;20284;-73
2022/03/17 01:46:15;;;;;;;52.10;31.77;;;;;;;5.45;nan;-23968.94;4981150;28;20511;-73
2022/03/17 01:48:41;;;;;;;53.83;32.83;;;;;;;4.72;nan;-23948.31;4983363;28;20180;-72
2022/03/17 01:51:07;;;;;;;50.03;30.93;;;;;;;5.25;nan;-23963.38;4983143;28;20177;-74
2022/03/17 01:53:33;;;;;;;54.67;32.70;;;;;;;5.04;nan;-23957.41;4980185;28;20691;-74
2022/03/17 01:55:59;;;;;;;52.67;32.83;;;;;;;4.79;nan;-23950.44;4980638;28;20188;-73
2022/03/17 01:58:25;;;;;;;51.37;31.40;;;;;;;4.73;nan;-23948.72;4983223;28;20708;-72
2022/03/17 02:00:51;;;;;;;53.37;31.67;;;;;;;5.15;nan;-23960.41;4980018;28;20212;-73
2022/03/17 02:03:17;;;;;;;54.70;33.07;;;;;;;4.61;nan;-23945.16;4980080;28;20287;-73
2022/03/17 02:05:43;;;;;;;55.80;33.57;;;;;;;4.84;nan;-23951.84;4981013;28;20176;-73
2022/03/17 02:08:10;;;;;;;56.10;32.73;;;;;;;5.19;nan;-23961.66;4974381;28;20765;-74
2022/03/17 02:13:20;;;;;;;54.00;33.37;;;;;;;5.23;nan;-23962.81;4981637;28;20215;-73
2022/03/17 02:15:51;;;;;;;55.93;33.43;;;;;;;4.78;nan;-23950.00;4984860;28;20664;-74
2022/03/17 02:18:18;;;;;;;57.03;33.50;;;;;;;4.90;nan;-23953.44;4981618;28;20243;-73
2022/03/17 02:21:09;;;;;;;54.53;33.20;;;;;;;5.26;nan;-23963.66;4981573;28;20242;-73
2022/03/17 02:26:21;;;;;;;57.77;35.50;;;;;;;4.59;nan;-23944.75;4982082;28;20235;-73
2022/03/17 02:28:46;;;;;;;61.27;37.33;;;;;;;5.19;nan;-23961.66;4981412;28;20200;-73
2022/03/17 02:31:12;;;;;;;59.87;36.97;;;;;;;5.16;nan;-23960.81;4981051;28;20177;-73
2022/03/17 02:33:40;;;;;;;58.10;35.07;;;;;;;5.33;nan;-23965.66;4980903;28;21762;-74
2022/03/17 02:36:08;;;;;;;53.53;33.80;;;;;;;5.24;nan;-23962.94;4980019;28;20275;-74
2022/03/17 02:38:33;;;;;;;56.50;33.37;;;;;;;5.36;nan;-23966.38;4985106;28;20224;-73
2022/03/17 02:40:59;;;;;;;53.50;33.63;;;;;;;5.01;nan;-23956.56;4982747;28;20196;-74
2022/03/17 02:43:26;;;;;;;54.57;34.53;;;;;;;5.17;nan;-23961.09;4982422;28;20224;-73
2022/03/17 02:45:51;;;;;;;53.03;33.87;;;;;;;5.36;nan;-23966.38;4981042;28;20651;-73
2022/03/17 02:48:18;;;;;;;54.67;33.17;;;;;;;5.13;nan;-23959.97;4982561;28;20191;-73
2022/03/17 02:50:45;;;;;;;51.10;33.07;;;;;;;5.30;nan;-23964.66;4982949;28;20649;-73
2022/03/17 02:53:11;;;;;;;51.53;33.17;;;;;;;5.19;nan;-23961.53;4982495;28;20591;-73
2022/03/17 02:55:39;;;;;;;50.43;32.17;;;;;;;5.43;nan;-23968.22;4982724;28;20180;-72
2022/03/17 02:58:06;;;;;;;51.07;32.63;;;;;;;5.09;nan;-23958.69;4982533;28;20204;-73
2022/03/17 03:00:33;;;;;;;55.13;33.33;;;;;;;5.05;nan;-23957.53;4980207;28;20592;-72
2022/03/17 03:02:59;;;;;;;56.30;35.50;;;;;;;5.03;nan;-23956.97;4982427;28;20274;-72
2022/03/17 03:05:26;;;;;;;56.23;33.10;;;;;;;5.37;nan;-23966.50;4982567;28;20177;-73
2022/03/17 03:07:53;;;;;;;48.10;32.60;;;;;;;5.67;nan;-23975.03;4980763;28;20199;-73
2022/03/17 03:10:20;;;;;;;53.13;31.23;;;;;;;5.55;nan;-23971.63;4982068;28;21585;-73
2022/03/17 03:12:45;;;;;;;52.37;32.53;;;;;;;5.34;nan;-23965.78;4981420;28;20824;-73
2022/03/17 03:15:11;;;;;;;50.73;32.13;;;;;;;5.71;nan;-23976.16;4979514;28;20197;-73
2022/03/17 03:17:36;;;;;;;49.63;31.67;;;;;;;5.43;nan;-23968.22;4987609;28;20207;-73
2022/03/17 03:20:02;;;;;;;50.83;32.30;;;;;;;5.23;nan;-23962.81;4987001;28;20668;-73
2022/03/17 03:22:29;;;;;;;52.17;32.47;;;;;;;5.81;nan;-23979.00;4984127;28;20288;-72
2022/03/17 03:24:57;;;;;;;54.27;32.37;;;;;;;5.68;nan;-23975.31;4983177;28;20193;-72
2022/03/17 03:27:27;;;;;;;53.27;33.27;;;;;;;5.52;nan;-23970.78;4984863;28;20183;-73
2022/03/17 03:29:54;;;;;;;52.00;31.33;;;;;;;5.48;nan;-23969.63;4985292;28;20680;-72
2022/03/17 03:32:19;;;;;;;50.33;31.67;;;;;;;5.55;nan;-23971.63;4986927;28;20235;-72
2022/03/17 03:34:45;;;;;;;48.43;31.37;;;;;;;5.85;nan;-23980.16;4986756;28;20184;-74
2022/03/17 03:37:25;;;;;;;48.90;30.70;;;;;;;5.78;nan;-23978.31;4985261;28;20247;-73
2022/03/17 03:39:53;;;;;;;48.60;29.63;;;;;;;5.74;nan;-23977.03;4976675;28;20567;-73
2022/03/17 03:42:19;;;;;;;48.33;29.27;;;;;;;5.75;nan;-23977.31;4983999;28;20223;-73
2022/03/17 03:44:45;;;;;;;50.77;31.50;;;;;;;5.77;nan;-23978.03;4988118;28;20260;-74
2022/03/17 03:47:11;;;;;;;49.63;31.47;;;;;;;5.98;nan;-23983.72;4989770;28;20539;-72
2022/03/17 03:49:39;;;;;;;54.13;32.67;;;;;;;5.67;nan;-23975.19;4988483;28;20651;-73
2022/03/17 03:52:06;;;;;;;52.90;32.37;;;;;;;5.64;nan;-23974.31;4982358;28;20181;-73
2022/03/17 03:54:32;;;;;;;53.03;32.57;;;;;;;5.94;nan;-23982.72;4993436;28;20259;-73
2022/03/17 03:56:57;;;;;;;52.33;32.47;;;;;;;5.94;nan;-23982.72;4988617;28;20695;-72
2022/03/17 03:59:25;;;;;;;49.47;31.40;;;;;;;5.83;nan;-23979.44;4992137;28;20181;-73
2022/03/17 04:01:58;;;;;;;46.30;29.53;;;;;;;6.03;nan;-23985.13;4992324;28;20195;-72
2022/03/17 04:04:24;;;;;;;45.20;26.50;;;;;;;5.65;nan;-23974.47;4988206;28;20211;-73
2022/03/17 04:06:52;;;;;;;41.27;25.87;;;;;;;5.33;nan;-23965.66;4992167;28;20177;-73
2022/03/17 04:09:20;;;;;;;39.73;25.33;;;;;;;6.31;nan;-23992.94;4986684;28;20759;-72
2022/03/17 04:11:46;;;;;;;39.70;26.40;;;;;;;6.17;nan;-23989.25;4989766;28;20180;-74
2022/03/17 04:14:13;;;;;;;40.87;25.90;;;;;;;5.71;nan;-23976.16;4985525;28;20235;-73
2022/03/17 04:16:39;;;;;;;39.13;25.90;;;;;;;5.81;nan;-23979.00;4991614;28;20177;-73
2022/03/17 04:19:05;;;;;;;42.40;26.37;;;;;;;6.08;nan;-23986.69;4992088;28;20193;-74
2022/03/17 04:21:32;;;;;;;45.87;26.43;;;;;;;6.12;nan;-23987.81;4979778;28;20189;-73
2022/03/17 04:23:58;;;;;;;41.47;26.33;;;;;;;6.10;nan;-23987.25;4974354;28;20259;-74
2022/03/17 04:26:24;;;;;;;39.43;25.53;;;;;;;5.65;nan;-23974.47;4987904;28;21412;-74
2022/03/17 04:28:49;;;;;;;39.77;25.23;;;;;;;5.94;nan;-23982.72;4989188;28;20180;-74
2022/03/17 04:31:15;;;;;;;36.63;23.07;;;;;;;6.02;nan;-23984.84;4987363;28;20188;-73
2022/03/17 04:33:40;;;;;;;34.50;22.67;;;;;;;5.85;nan;-23980.16;4987502;28;20185;-74
2022/03/17 04:36:07;;;;;;;34.30;22.00;;;;;;;5.93;nan;-23982.28;4990413;28;20267;-74
2022/03/17 04:38:33;;;;;;;35.50;22.13;;;;;;;6.10;nan;-23987.25;4989414;28;20181;-74
2022/03/17 04:40:59;;;;;;;33.27;21.07;;;;;;;5.84;nan;-23979.72;4988686;28;20193;-74
2022/03/17 04:43:25;;;;;;;31.37;21.17;;;;;;;6.35;nan;-23994.06;4988409;28;20260;-74
2022/03/17 04:45:51;;;;;;;31.47;19.67;;;;;;;6.44;nan;-23996.63;4987255;28;20255;-74
2022/03/17 04:48:16;;;;;;;30.77;19.60;;;;;;;5.95;nan;-23982.84;4984437;28;20284;-71
2022/03/17 04:50:42;;;;;;;32.37;21.60;;;;;;;5.82;nan;-23979.31;4985510;28;20177;-74
2022/03/17 04:53:27;;;;;;;31.87;20.63;;;;;;;5.72;nan;-23976.59;4984661;28;20216;-74
2022/03/17 04:56:01;;;;;;;32.40;20.80;;;;;;;6.15;nan;-23988.53;4987593;28;20199;-74
2022/03/17 04:58:31;;;;;;;31.90;20.23;;;;;;;5.96;nan;-23983.13;4985234;28;20188;-73
2022/03/17 05:00:57;;;;;;;27.83;17.90;;;;;;;6.34;nan;-23993.94;4987807;28;20255;-75
2022/03/17 05:03:24;;;;;;;37.93;19.90;;;;;;;6.14;nan;-23988.25;4984816;28;20220;-74
2022/03/17 05:05:50;;;;;;;29.40;19.47;;;;;;;6.14;nan;-23988.41;4985608;28;20184;-74
2022/03/17 05:08:16;;;;;;;34.10;20.07;;;;;;;6.10;nan;-23987.25;4985092;28;20196;-74
2022/03/17 05:10:42;;;;;;;29.90;19.40;;;;;;;6.08;nan;-23986.69;4987463;28;20508;-74
2022/03/17 05:13:09;;;;;;;29.00;18.67;;;;;;;6.39;nan;-23995.34;4987968;28;20184;-73
2022/03/17 05:15:36;;;;;;;25.87;17.70;;;;;;;6.31;nan;-23993.09;4987803;28;20188;-73
2022/03/17 05:18:03;;;;;;;25.77;17.90;;;;;;;6.12;nan;-23987.69;4983295;28;20231;-72
2022/03/17 05:20:28;;;;;;;45.23;28.07;;;;;;;6.14;nan;-23988.25;4988163;28;20181;-73
2022/03/17 05:22:54;;;;;;;57.43;34.70;;;;;;;5.74;nan;-23977.03;4983394;28;20212;-74
2022/03/17 05:25:20;;;;;;;58.73;34.90;;;;;;;5.61;nan;-23973.47;4985752;28;20694;-72
2022/03/17 05:27:49;;;;;;;56.23;36.67;;;;;;;5.16;nan;-23960.81;4979462;28;20664;-72
2022/03/17 05:30:17;;;;;;;61.10;34.67;;;;;;;5.65;nan;-23974.59;4983815;28;20192;-74
2022/03/17 05:32:44;;;;;;;50.23;30.27;;;;;;;6.25;nan;-23991.38;4979709;28;20231;-72
2022/03/17 05:35:10;;;;;;;46.70;28.93;;;;;;;6.10;nan;-23987.25;4972974;28;20184;-71
2022/03/17 05:37:36;;;;;;;43.60;27.23;;;;;;;5.60;nan;-23973.03;4984590;28;20193;-72
2022/03/17 05:40:13;;;;;;;42.30;26.47;;;;;;;6.14;nan;-23988.25;4982770;28;20277;-72
2022/03/17 05:42:40;;;;;;;46.23;29.97;;;;;;;6.05;nan;-23985.84;4986362;28;20224;-76
2022/03/17 05:45:06;;;;;;;46.43;28.80;;;;;;;5.95;nan;-23983.00;4987461;28;20647;-76
2022/03/17 05:47:40;;;;;;;49.43;28.60;;;;;;;5.72;nan;-23976.59;4984704;28;20262;-76
2022/03/17 05:50:09;;;;;;;47.30;28.87;;;;;;;5.85;nan;-23980.00;4987904;28;20224;-75
2022/03/17 05:52:35;;;;;;;48.87;29.37;;;;;;;5.80;nan;-23978.72;4984666;28;20655;-74
2022/03/17 05:55:01;;;;;;;45.40;29.23;;;;;;;5.76;nan;-23977.59;4984627;28;20198;-75
2022/03/17 05:57:26;;;;;;;45.90;28.07;;;;;;;6.18;nan;-23989.38;4982861;28;20180;-74
2022/03/17 05:59:53;;;;;;;45.10;28.60;;;;;;;6.13;nan;-23988.13;4985074;28;20663;-74
2022/03/17 06:02:18;;;;;;;49.30;29.87;;;;;;;5.47;nan;-23969.34;4981457;28;20186;-76
2022/03/17 06:04:44;;;;;;;48.27;30.60;;;;;;;5.45;nan;-23968.94;4983600;28;20564;-75
2022/03/17 06:07:10;;;;;;;47.70;28.77;;;;;;;5.79;nan;-23978.44;4986440;28;20177;-74
2022/03/17 06:09:38;;;;;;;44.17;27.80;;;;;;;5.77;nan;-23977.88;4986832;28;20225;-74
2022/03/17 06:12:05;;;;;;;45.80;30.10;;;;;;;5.98;nan;-23983.84;4987874;28;20247;-75
2022/03/17 06:14:32;;;;;;;45.67;29.33;;;;;;;6.27;nan;-23991.94;4985568;28;20177;-75
2022/03/17 06:16:58;;;;;;;46.10;28.60;;;;;;;5.73;nan;-23976.88;4983123;28;20180;-74
2022/03/17 06:19:23;;;;;;;44.90;29.33;;;;;;;5.98;nan;-23983.84;4984799;28;20195;-76
2022/03/17 06:21:49;;;;;;;45.47;29.60;;;;;;;5.68;nan;-23975.31;4984851;28;20192;-77
2022/03/17 06:24:15;;;;;;;47.77;30.00;;;;;;;6.22;nan;-23990.53;4986465;28;20204;-75
2022/03/17 06:26:40;;;;;;;42.47;28.33;;;;;;;6.09;nan;-23986.84;4984403;28;20295;-75
2022/03/17 06:29:06;;;;;;;45.87;28.50;;;;;;;6.34;nan;-23993.78;4985161;28;20191;-73
2022/03/17 06:31:31;;;;;;;46.00;28.27;;;;;;;6.26;nan;-23991.66;4986297;28;20199;-74
2022/03/17 06:33:57;;;;;;;42.00;26.83;;;;;;;6.01;nan;-23984.56;4983287;28;20364;-73
2022/03/17 06:36:23;;;;;;;44.47;27.33;;;;;;;5.91;nan;-23981.72;4980971;28;20235;-75
2022/03/17 06:38:48;;;;;;;44.40;27.87;;;;;;;6.23;nan;-23990.81;4982070;28;20220;-75
2022/03/17 06:41:14;;;;;;;42.93;28.30;;;;;;;6.47;nan;-23997.47;4983462;28;20695;-73
2022/03/17 06:43:40;;;;;;;48.70;29.40;;;;;;;6.44;nan;-23996.63;4984883;28;20302;-73
2022/03/17 06:46:08;;;;;;;48.67;30.73;;;;;;;6.55;nan;-23999.75;4984115;28;20247;-76
2022/03/17 06:48:34;;;;;;;47.97;31.40;;;;;;;6.33;nan;-23993.50;4982690;28;20201;-75
2022/03/17 06:51:00;;;;;;;45.67;28.83;;;;;;;6.21;nan;-23990.25;4987464;28;20210;-76
2022/03/17 06:53:26;;;;;;;42.57;27.60;;;;;;;6.00;nan;-23984.41;4978171;28;20197;-75
2022/03/17 06:55:51;;;;;;;44.40;28.97;;;;;;;6.47;nan;-23997.63;4985868;28;20277;-74
2022/03/17 06:58:17;;;;;;;43.10;26.23;;;;;;;6.49;nan;-23998.06;4989438;28;20279;-76
2022/03/17 07:00:43;;;;;;;46.07;27.63;;;;;;;6.38;nan;-23994.94;4989356;28;20180;-77
2022/03/17 07:03:08;;;;;;;47.87;28.30;;;;;;;5.83;nan;-23979.44;4988629;28;20241;-76
2022/03/17 07:05:34;;;;;;;46.50;27.60;;;;;;;6.40;nan;-23995.63;4988329;28;20173;-74
2022/03/17 07:07:59;;;;;;;40.10;25.93;;;;;;;6.39;nan;-23995.22;4990584;28;20688;-73
2022/03/17 07:10:27;;;;;;;46.97;26.37;;;;;;;6.08;nan;-23986.56;4988342;28;20703;-74
2022/03/17 07:12:53;;;;;;;42.60;26.63;;;;;;;6.38;nan;-23994.94;4984620;28;20191;-73
2022/03/17 07:15:19;;;;;;;43.60;27.23;;;;;;;6.57;nan;-24000.31;4989673;28;20173;-76
2022/03/17 07:17:45;;;;;;;43.53;27.83;;;;;;;6.16;nan;-23988.81;4989073;28;20181;-74
2022/03/17 07:20:12;;;;;;;47.03;28.27;;;;;;;6.42;nan;-23996.06;4989288;28;20181;-74
2022/03/17 07:22:41;;;;;;;45.40;25.70;;;;;;;6.12;nan;-23987.81;4985084;28;20180;-74
2022/03/17 07:25:09;;;;;;;43.63;26.10;;;;;;;6.32;nan;-23993.38;4985206;28;21104;-74
2022/03/17 07:27:40;;;;;;;41.63;25.07;;;;;;;6.65;nan;-24002.59;4987026;28;20329;-78
2022/03/17 07:30:09;;;;;;;41.40;25.57;;;;;;;6.11;nan;-23987.53;4988977;28;20568;-75
2022/03/17 07:32:34;;;;;;;42.07;25.53;;;;;;;6.62;nan;-24001.88;4988548;28;20189;-74
2022/03/17 07:35:00;;;;;;;45.90;25.67;;;;;;;6.85;nan;-24008.25;4990419;28;20184;-76
2022/03/17 07:37:25;;;;;;;41.27;25.60;;;;;;;6.74;nan;-24005.00;4988454;28;20180;-75
2022/03/17 07:39:50;;;;;;;42.50;26.27;;;;;;;6.19;nan;-23989.81;4988291;28;20220;-75
2022/03/17 07:42:16;;;;;;;40.43;25.00;;;;;;;6.66;nan;-24002.88;4987339;28;20315;-74
2022/03/17 07:44:42;;;;;;;42.60;25.33;;;;;;;6.83;nan;-24007.56;4989807;28;20208;-73
2022/03/17 07:47:08;;;;;;;46.40;26.13;;;;;;;6.84;nan;-24007.84;4988023;28;20255;-73
2022/03/17 07:49:37;;;;;;;42.70;25.67;;;;;;;7.13;nan;-24015.94;4987762;28;20208;-76
2022/03/17 07:52:04;;;;;;;42.17;25.03;;;;;;;6.82;nan;-24007.41;4988759;28;20192;-77
2022/03/17 07:54:30;;;;;;;45.33;26.20;;;;;;;6.98;nan;-24011.94;4986811;28;20271;-74
2022/03/17 07:56:55;;;;;;;41.77;25.70;;;;;;;7.30;nan;-24020.75;4988328;28;20192;-75
2022/03/17 07:59:23;;;;;;;41.37;25.37;;;;;;;7.55;nan;-24027.84;4988192;28;20188;-76
2022/03/17 08:01:49;;;;;;;42.27;25.40;;;;;;;6.93;nan;-24010.41;4988066;28;20229;-76
2022/03/17 08:04:15;;;;;;;45.90;25.63;;;;;;;7.70;nan;-24032.09;4986850;28;20359;-75
2022/03/17 08:06:41;;;;;;;43.73;26.57;;;;;;;7.45;nan;-24025.00;4980464;28;20699;-76
2022/03/17 08:09:07;;;;;;;42.50;25.53;;;;;;;7.45;nan;-24025.13;4990626;28;20254;-77
2022/03/17 08:11:32;;;;;;;40.93;25.70;;;;;;;8.09;nan;-24043.00;4988979;28;20622;-75
2022/03/17 08:13:58;;;;;;;42.27;24.63;;;;;;;7.78;nan;-24034.22;4988875;28;20203;-73
2022/03/17 08:16:23;;;;;;;44.90;26.80;;;;;;;7.55;nan;-24027.84;4986237;28;20191;-73
2022/03/17 08:18:49;;;;;;;40.13;25.43;;;;;;;8.16;nan;-24044.97;4978754;28;20661;-76
2022/03/17 08:21:15;;;;;;;41.57;26.20;;;;;;;7.84;nan;-24035.91;4989061;28;20652;-77
2022/03/17 08:23:41;;;;;;;44.80;26.30;;;;;;;7.91;nan;-24038.03;4989172;28;20212;-76
2022/03/17 08:26:07;;;;;;;44.67;26.70;;;;;;;7.95;nan;-24039.16;4989176;28;20183;-74
2022/03/17 08:28:33;;;;;;;42.73;25.43;;;;;;;7.85;nan;-24036.34;4990252;28;20199;-75
2022/03/17 08:30:59;;;;;;;46.00;27.13;;;;;;;7.77;nan;-24034.06;4992126;28;20196;-74
2022/03/17 08:33:25;;;;;;;44.00;27.27;;;;;;;7.59;nan;-24028.97;4989783;28;20191;-74
2022/03/17 08:35:50;;;;;;;45.97;25.70;;;;;;;7.50;nan;-24026.56;4989645;28;20189;-74
2022/03/17 08:38:16;;;;;;;43.57;27.30;;;;;;;7.50;nan;-24026.56;4988639;28;20645;-74
2022/03/17 08:40:41;;;;;;;43.70;26.53;;;;;;;7.53;nan;-24027.41;4992582;28;20236;-74
2022/03/17 08:43:08;;;;;;;43.30;26.87;;;;;;;7.62;nan;-24029.81;4989650;28;20235;-73
2022/03/17 08:51:03;;;;;;;48.83;28.13;;;;;;;7.82;nan;-24035.47;4992525;28;20603;-75
2022/03/17 08:53:29;;;;;;;44.57;27.50;;;;;;;8.17;nan;-24045.13;4989106;28;20181;-76
2022/03/17 08:55:54;;;;;;;46.83;27.57;;;;;;;8.34;nan;-24049.94;4991569;28;20180;-77
2022/03/17 08:58:23;;;;;;;41.83;25.47;;;;;;;8.60;nan;-24057.16;4988136;28;21824;-74
2022/03/17 09:00:48;;;;;;;47.10;26.90;;;;;;;8.61;nan;-24057.56;4986345;28;20176;-75
2022/03/17 09:03:14;;;;;;;49.47;28.70;;;;;;;8.49;nan;-24054.03;4989708;28;20197;-74
2022/03/17 09:05:41;;;;;;;46.30;28.23;;;;;;;8.64;nan;-24058.28;4990537;28;20173;-76
2022/03/17 09:08:08;;;;;;;42.67;27.43;;;;;;;8.27;nan;-24047.94;4988291;28;20255;-75
2022/03/17 09:10:35;;;;;;;47.63;27.83;;;;;;;8.53;nan;-24055.31;4986215;28;20192;-75
2022/03/17 09:13:07;;;;;;;45.07;27.30;;;;;;;8.11;nan;-24043.56;4997045;28;20191;-75
2022/03/17 09:15:38;;;;;;;46.33;27.73;;;;;;;8.27;nan;-24048.09;4987556;28;20560;-81
2022/03/17 09:18:08;;;;;;;44.40;27.30;;;;;;;8.17;nan;-24045.25;4995068;28;20192;-75
2022/03/17 09:20:34;;;;;;;47.30;28.87;;;;;;;8.71;nan;-24060.41;4988891;28;20227;-73
2022/03/17 09:23:01;;;;;;;47.20;28.43;;;;;;;8.70;nan;-24059.97;4989128;28;20176;-73
2022/03/17 09:25:28;;;;;;;47.00;28.47;;;;;;;8.82;nan;-24063.53;4984287;28;20336;-75
2022/03/17 09:27:54;;;;;;;46.83;27.03;;;;;;;8.57;nan;-24056.31;4981391;28;20185;-76
2022/03/17 09:30:21;;;;;;;49.30;29.03;;;;;;;9.01;nan;-24068.75;4984905;28;20302;-74
2022/03/17 09:32:47;;;;;;;49.13;29.60;;;;;;;8.84;nan;-24063.94;4989934;28;20192;-75
2022/03/17 09:35:13;;;;;;;47.43;29.60;;;;;;;8.99;nan;-24068.19;4990149;28;20188;-74
2022/03/17 09:37:40;;;;;;;46.80;29.07;;;;;;;8.98;nan;-24067.75;4985912;28;20180;-75
2022/03/17 09:40:08;;;;;;;45.10;28.07;;;;;;;8.97;nan;-24067.63;4991403;28;20228;-73
2022/03/17 09:42:34;;;;;;;49.23;28.80;;;;;;;9.04;nan;-24069.47;4990327;28;20338;-76
2022/03/17 09:45:00;;;;;;;50.77;29.77;;;;;;;8.98;nan;-24067.75;4991912;28;20296;-74
2022/03/17 09:47:28;;;;;;;47.13;28.43;;;;;;;8.99;nan;-24068.19;4991308;28;20216;-74
2022/03/17 09:49:56;;;;;;;48.37;29.87;;;;;;;8.91;nan;-24065.94;4989576;28;20224;-74
2022/03/17 09:52:22;;;;;;;45.37;28.50;;;;;;;8.99;nan;-24068.19;4992265;28;20188;-72
2022/03/17 09:54:49;;;;;;;51.67;30.33;;;;;;;8.35;nan;-24050.22;4992469;28;20173;-73
2022/03/17 09:57:16;;;;;;;46.20;29.67;;;;;;;8.66;nan;-24059.00;4991955;28;20260;-73
2022/03/17 09:59:53;;;;;;;52.47;29.27;;;;;;;8.72;nan;-24060.69;4992244;28;20232;-73
2022/03/17 10:02:19;;;;;;;51.73;29.27;;;;;;;8.77;nan;-24061.97;4991106;28;20188;-74
2022/03/17 10:04:47;;;;;;;49.30;28.83;;;;;;;8.33;nan;-24049.66;4991895;28;20688;-73
2022/03/17 10:07:14;;;;;;;47.70;27.87;;;;;;;8.45;nan;-24053.06;4991865;28;20181;-73
2022/03/17 10:09:42;;;;;;;45.63;27.80;;;;;;;8.54;nan;-24055.47;4988777;28;20180;-72
2022/03/17 10:12:10;;;;;;;45.13;27.50;;;;;;;8.42;nan;-24052.34;4989537;28;20242;-74
2022/03/17 10:14:43;;;;;;;50.70;28.83;;;;;;;8.20;nan;-24045.97;4984348;28;20192;-74
2022/03/17 10:17:34;;;;;;;52.03;29.63;;;;;;;8.68;nan;-24059.56;4992144;28;20181;-75
2022/03/17 10:20:25;;;;;;;51.43;28.40;;;;;;;9.03;nan;-24069.19;4988713;28;20212;-75
2022/03/17 10:22:54;;;;;;;47.30;27.60;;;;;;;8.82;nan;-24063.53;4986683;28;20291;-74
2022/03/17 10:25:24;;;;;;;47.00;27.13;;;;;;;8.90;nan;-24065.50;4990798;28;20181;-75
2022/03/17 10:27:51;;;;;;;47.67;29.03;;;;;;;9.19;nan;-24073.72;4988532;28;20184;-73
2022/03/17 10:30:23;;;;;;;53.53;29.70;;;;;;;9.44;nan;-24080.78;4988804;28;20291;-74
2022/03/17 10:32:56;;;;;;;49.13;29.23;;;;;;;9.11;nan;-24071.59;4991479;28;20550;-74
2022/03/17 10:35:27;;;;;;;45.43;27.97;;;;;;;9.50;nan;-24082.31;4988644;28;20648;-74
2022/03/17 10:37:53;;;;;;;47.30;27.77;;;;;;;9.53;nan;-24083.31;4987640;28;20200;-75
2022/03/17 10:40:18;;;;;;;45.97;27.03;;;;;;;9.03;nan;-24069.31;4986647;28;20258;-74
2022/03/17 10:42:44;;;;;;;44.17;26.50;;;;;;;9.75;nan;-24089.53;4989627;28;20228;-74
2022/03/17 10:45:10;;;;;;;45.47;27.10;;;;;;;9.55;nan;-24083.75;4988982;28;20263;-74
2022/03/17 10:47:39;;;;;;;42.10;26.27;;;;;;;9.31;nan;-24077.09;4994905;28;20262;-75
2022/03/17 10:50:22;;;;;;;44.00;26.70;;;;;;;9.60;nan;-24085.16;4993812;28;20189;-74
2022/03/17 10:52:57;;;;;;;44.53;25.20;;;;;;;9.37;nan;-24078.78;4994658;28;20189;-74
2022/03/17 10:55:27;;;;;;;47.33;25.73;;;;;;;9.36;nan;-24078.38;4995325;28;20184;-75
2022/03/17 10:58:14;;;;;;;44.13;25.53;;;;;;;9.52;nan;-24082.91;4982213;28;20180;-74
2022/03/17 11:00:50;;;;;;;42.80;24.47;;;;;;;8.83;nan;-24063.81;4992816;28;20192;-75
2022/03/17 11:03:17;;;;;;;39.37;24.37;;;;;;;9.39;nan;-24079.34;4994374;28;20207;-75
2022/03/17 11:05:43;;;;;;;41.83;24.37;;;;;;;9.26;nan;-24075.69;4994728;28;20185;-74
2022/03/17 11:08:09;;;;;;;38.17;24.47;;;;;;;9.53;nan;-24083.31;4994084;28;20196;-73
2022/03/17 11:10:39;;;;;;;42.83;25.13;;;;;;;9.28;nan;-24076.25;4989999;28;20216;-74
2022/03/17 11:13:11;;;;;;;38.33;24.47;;;;;;;9.77;nan;-24090.09;4984089;28;20200;-73
2022/03/17 11:15:42;;;;;;;37.87;23.60;;;;;;;9.69;nan;-24087.84;4990310;28;20208;-74
2022/03/17 11:18:17;;;;;;;41.60;24.83;;;;;;;9.81;nan;-24090.94;4990657;28;20191;-73
2022/03/17 11:20:42;;;;;;;41.60;24.37;;;;;;;10.07;nan;-24098.28;4987821;28;20188;-73
2022/03/17 11:23:21;;;;;;;37.15;23.52;;;;;;;9.81;nan;-24091.09;4981757;28;20238;-73
2022/03/17 11:25:58;;;;;;;45.30;25.08;;;;;;;9.72;nan;-24088.69;4989993;28;20621;-74
2022/03/17 11:28:36;;;;;;;36.47;22.42;;;;;;;10.14;nan;-24100.25;4987219;28;20207;-75
2022/03/17 11:31:03;;;;;;;37.65;23.98;;;;;;;10.04;nan;-24097.59;4989195;28;20177;-75
2022/03/17 11:33:39;;;;;;;37.17;24.08;;;;;;;10.14;nan;-24100.41;4992477;28;20196;-75
2022/03/17 11:36:08;;;;;;;36.45;23.25;;;;;;;10.28;nan;-24104.22;4993548;28;20239;-74
2022/03/17 11:38:37;;;;;;;37.63;23.30;;;;;;;9.60;nan;-24085.16;4990843;28;20189;-74
2022/03/17 11:41:09;;;;;;;38.10;23.77;;;;;;;9.76;nan;-24089.66;4988575;28;20652;-74
2022/03/17 11:43:46;;;;;;;37.27;23.23;;;;;;;9.45;nan;-24081.06;4981012;28;20254;-73
2022/03/17 11:46:14;;;;;;;36.37;23.47;;;;;;;9.74;nan;-24089.09;4994335;28;20189;-74